createdAt,value
2023-05-11T00:01:54.958Z,71.59
2023-05-11T00:09:13.462Z,73.86
2023-05-11T00:16:33.290Z,77.02
2023-05-11T00:23:51.711Z,78.33
2023-05-11T00:31:10.016Z,81.88
2023-05-11T00:38:29.821Z,82.74
2023-05-11T00:45:49.862Z,83.97
2023-05-11T00:53:08.136Z,84.79
2023-05-11T01:00:27.947Z,86.11
2023-05-11T01:07:52.958Z,86.59
2023-05-11T01:15:13.776Z,88.46
2023-05-11T01:22:52.758Z,87.26
2023-05-11T01:30:34.215Z,86.94
2023-05-11T01:37:55.771Z,87.79
2023-05-11T01:45:14.906Z,86.13
2023-05-11T01:52:34.837Z,85.83
2023-05-11T01:59:53.742Z,86.62
2023-05-11T02:07:13.470Z,85.39
2023-05-11T02:14:34.356Z,86.10
2023-05-11T02:21:54.707Z,86.35
2023-05-11T02:29:13.239Z,87.17
2023-05-11T02:36:33.972Z,88.20
2023-05-11T02:43:53.200Z,87.25
2023-05-11T02:51:12.748Z,86.92
2023-05-11T02:58:38.013Z,87.13
2023-05-11T03:06:10.258Z,86.96
2023-05-11T03:13:29.184Z,86.82
2023-05-11T03:20:52.021Z,86.98
2023-05-11T03:28:10.834Z,87.67
2023-05-11T03:35:29.744Z,87.79
2023-05-11T03:42:49.734Z,89.10
2023-05-11T03:50:09.149Z,89.02
2023-05-11T03:57:28.024Z,90.21
2023-05-11T04:04:48.032Z,90.18
2023-05-11T04:12:06.729Z,89.66
2023-05-11T04:19:25.930Z,88.12
2023-05-11T04:26:45.585Z,87.26
2023-05-11T04:34:04.055Z,87.08
2023-05-11T04:41:22.592Z,88.06
2023-05-11T04:48:43.932Z,88.47
2023-05-11T04:56:07.454Z,87.81
2023-05-11T05:03:26.945Z,88.11
2023-05-11T05:10:50.319Z,87.80
2023-05-11T05:18:09.113Z,87.40
2023-05-11T05:25:27.336Z,87.36
2023-05-11T05:32:48.658Z,85.24
2023-05-11T05:40:08.492Z,87.08
2023-05-11T05:47:32.201Z,83.81
2023-05-11T05:54:51.875Z,84.15
2023-05-11T06:02:11.940Z,81.79
2023-05-11T06:09:30.607Z,78.36
2023-05-11T06:16:50.441Z,75.22
2023-05-11T06:24:09.022Z,68.58
2023-05-11T06:31:29.505Z,70.73
2023-05-11T06:38:49.482Z,60.37
2023-05-11T06:46:07.770Z,57.83
2023-05-11T06:53:26.206Z,55.47
2023-05-11T07:00:45.805Z,54.42
2023-05-11T07:08:04.903Z,50.79
2023-05-11T07:15:23.120Z,52.02
2023-05-11T07:22:42.974Z,53.96
2023-05-11T07:30:01.304Z,54.19
2023-05-11T07:37:19.898Z,52.87
2023-05-11T07:44:39.746Z,55.28
2023-05-11T07:51:58.358Z,58.52
2023-05-11T07:59:17.166Z,58.93
2023-05-11T08:06:37.627Z,59.01
2023-05-11T08:13:55.759Z,55.64
2023-05-11T08:21:15.394Z,52.62
2023-05-11T08:28:34.850Z,50.88
2023-05-11T08:35:53.032Z,46.57
2023-05-11T08:43:11.442Z,45.13
2023-05-11T08:50:30.987Z,46.66
2023-05-11T08:57:49.648Z,47.42
2023-05-11T09:05:08.856Z,44.99
2023-05-11T09:12:28.640Z,43.27
2023-05-11T09:20:01.532Z,42.88
2023-05-11T09:27:21.647Z,43.75
2023-05-11T09:34:43.085Z,42.70
2023-05-11T09:42:15.010Z,43.94
2023-05-11T09:49:33.415Z,42.28
2023-05-11T09:56:54.452Z,41.61
2023-05-11T10:04:22.807Z,38.76
2023-05-11T10:11:45.173Z,36.20
2023-05-11T10:19:05.222Z,37.12
2023-05-11T10:26:23.399Z,35.53
2023-05-11T10:33:43.148Z,35.13
2023-05-11T10:41:12.091Z,36.76
2023-05-11T10:49:04.177Z,33.44
2023-05-11T10:56:36.006Z,31.63
2023-05-11T11:03:59.572Z,34.41
2023-05-11T11:11:32.060Z,36.49
2023-05-11T11:18:50.248Z,36.71
2023-05-11T11:26:10.099Z,35.89
2023-05-11T11:33:35.765Z,37.46
2023-05-11T11:40:53.925Z,37.44
2023-05-11T11:48:16.419Z,36.92
2023-05-11T11:55:50.196Z,34.57
2023-05-11T12:03:08.937Z,33.56
2023-05-11T12:10:27.029Z,39.62
2023-05-11T12:17:46.679Z,41.12
2023-05-11T12:25:06.707Z,42.62
2023-05-11T12:32:29.227Z,41.34
2023-05-11T12:39:55.286Z,41.90
2023-05-11T12:47:13.483Z,42.36
2023-05-11T12:54:35.881Z,43.08
2023-05-11T13:01:55.710Z,42.99
2023-05-11T13:09:23.192Z,42.23
2023-05-11T13:16:41.394Z,42.50
2023-05-11T13:24:01.571Z,40.89
2023-05-11T13:31:20.304Z,39.57
2023-05-11T13:38:38.465Z,38.22
2023-05-11T13:45:57.972Z,38.03
2023-05-11T13:53:16.609Z,40.06
2023-05-11T14:00:35.360Z,38.57
2023-05-11T14:07:55.008Z,39.11
2023-05-11T14:15:13.470Z,39.74
2023-05-11T14:22:31.531Z,39.81
2023-05-11T14:29:51.578Z,39.52
2023-05-11T14:37:09.714Z,40.17
2023-05-11T14:44:28.266Z,39.93
2023-05-11T14:51:47.820Z,38.68
2023-05-11T14:59:05.988Z,39.34
2023-05-11T15:06:24.140Z,39.39
2023-05-11T15:13:43.603Z,40.44
2023-05-11T15:21:03.384Z,39.48
2023-05-11T15:28:21.745Z,40.00
2023-05-11T15:35:41.599Z,38.63
2023-05-11T15:43:00.286Z,38.35
2023-05-11T15:50:18.531Z,38.07
2023-05-11T15:57:38.309Z,37.53
2023-05-11T16:04:56.505Z,36.97
2023-05-11T16:12:14.682Z,37.57
2023-05-11T16:19:34.147Z,38.57
2023-05-11T16:26:52.397Z,39.81
2023-05-11T16:34:10.484Z,40.63
2023-05-11T16:41:30.223Z,41.15
2023-05-11T16:48:48.477Z,41.07
2023-05-11T16:56:07.653Z,41.46
2023-05-11T17:03:27.391Z,41.49
2023-05-11T17:10:46.384Z,41.71
2023-05-11T17:18:05.364Z,41.98
2023-05-11T17:25:25.016Z,42.55
2023-05-11T17:32:43.553Z,43.01
2023-05-11T17:40:02.325Z,41.77
2023-05-11T17:47:22.472Z,43.06
2023-05-11T17:54:40.718Z,43.74
2023-05-11T18:01:59.430Z,44.26
2023-05-11T18:09:19.867Z,44.92
2023-05-11T18:16:38.417Z,45.34
2023-05-11T18:23:56.752Z,45.99
2023-05-11T18:31:19.227Z,47.24
2023-05-11T18:38:37.578Z,47.79
2023-05-11T18:45:55.862Z,48.38
2023-05-11T18:53:15.632Z,48.50
2023-05-11T19:00:37.712Z,48.93
2023-05-11T19:07:55.886Z,50.18
2023-05-11T19:15:15.820Z,50.51
2023-05-11T19:22:34.114Z,50.41
2023-05-11T19:29:52.278Z,49.99
2023-05-11T19:37:12.491Z,49.59
2023-05-11T19:44:33.088Z,50.83
2023-05-11T19:51:51.389Z,50.49
2023-05-11T19:59:10.981Z,50.86
2023-05-11T20:06:29.189Z,51.42
2023-05-11T20:13:47.967Z,52.24
2023-05-11T20:21:07.946Z,52.82
2023-05-11T20:28:27.497Z,52.77
2023-05-11T20:35:45.738Z,53.44
2023-05-11T20:43:05.503Z,54.06
2023-05-11T20:50:24.747Z,54.07
2023-05-11T20:57:42.929Z,55.00
2023-05-11T21:05:02.826Z,54.65
2023-05-11T21:12:21.114Z,55.35
2023-05-11T21:19:39.269Z,55.66
2023-05-11T21:26:59.665Z,56.65
2023-05-11T21:34:18.603Z,56.81
2023-05-11T21:41:36.815Z,57.68
2023-05-11T21:48:56.301Z,57.95
2023-05-11T21:56:15.780Z,58.03
2023-05-11T22:03:34.495Z,58.82
2023-05-11T22:10:54.258Z,58.75
2023-05-11T22:18:12.525Z,59.77
2023-05-11T22:25:32.133Z,59.93
2023-05-11T22:32:51.683Z,59.85
2023-05-11T22:40:10.768Z,59.25
2023-05-11T22:47:29.668Z,59.10
2023-05-11T22:54:49.444Z,59.81
2023-05-11T23:02:07.703Z,59.86
2023-05-11T23:09:26.208Z,60.11
2023-05-11T23:16:45.964Z,60.32
2023-05-11T23:24:05.002Z,61.24
2023-05-11T23:31:23.274Z,61.07
2023-05-11T23:38:42.957Z,61.64
2023-05-11T23:46:02.548Z,62.49
2023-05-11T23:53:20.815Z,62.24
